Time;durP1;ratioP1;P1;durP2;ratioP2;P2;SDS_P1;SDS_P2;PMS_P1;PMS_P2;Temp;Humidity;BMP_temperature;BMP_pressure;BME280_temperature;BME280_humidity;BME280_pressure;Samples;Min_cycle;Max_cycle;Signal;HPM_P1;HPM_P2
2022/06/07 00:01:19;;;;;;;8.90;6.20;;;18.00;99.90;;;;;;5117710;28;20449;-37
2022/06/07 00:03:46;;;;;;;9.73;6.20;;;17.90;99.90;;;;;;5118985;28;20457;-37
2022/06/07 00:06:13;;;;;;;8.43;6.00;;;17.90;99.90;;;;;;5116639;28;20505;-39
2022/06/07 00:08:40;;;;;;;5.67;4.80;;;17.90;99.90;;;;;;5101100;28;20454;-39
2022/06/07 00:11:07;;;;;;;5.90;5.30;;;17.80;99.90;;;;;;5118305;28;20493;-38
2022/06/07 00:13:34;;;;;;;7.27;5.73;;;17.80;99.90;;;;;;5111725;28;20473;-38
2022/06/07 00:16:01;;;;;;;7.80;5.17;;;17.80;99.90;;;;;;5105771;28;20441;-38
2022/06/07 00:18:29;;;;;;;6.80;5.40;;;17.90;99.90;;;;;;5116955;28;20480;-40
2022/06/07 00:20:56;;;;;;;6.30;5.17;;;17.90;99.90;;;;;;5107180;28;20433;-38
2022/06/07 00:23:23;;;;;;;7.10;5.73;;;17.90;99.90;;;;;;5109995;28;20457;-37
2022/06/07 00:25:54;;;;;;;5.83;5.23;;;17.90;99.90;;;;;;5118079;28;20469;-36
2022/06/07 00:28:25;;;;;;;6.40;5.00;;;17.80;99.90;;;;;;5117821;28;20501;-38
2022/06/07 00:30:52;;;;;;;9.27;5.50;;;17.80;99.90;;;;;;5118394;28;20963;-39
2022/06/07 00:33:21;;;;;;;5.83;4.90;;;17.80;99.90;;;;;;5117100;28;20490;-39
2022/06/07 00:35:50;;;;;;;6.77;4.90;;;17.80;99.90;;;;;;5117601;28;20452;-41
2022/06/07 00:38:16;;;;;;;5.60;5.00;;;17.70;99.90;;;;;;5117572;28;20468;-36
2022/06/07 00:40:43;;;;;;;10.17;5.57;;;17.70;99.90;;;;;;5116570;28;20545;-38
2022/06/07 00:43:10;;;;;;;8.77;6.40;;;17.70;99.90;;;;;;5100364;28;20496;-39
2022/06/07 00:45:39;;;;;;;7.67;4.87;;;17.70;99.90;;;;;;5117053;28;20482;-39
2022/06/07 00:48:07;;;;;;;6.47;5.50;;;17.60;99.90;;;;;;5112707;28;20480;-39
2022/06/07 00:50:41;;;;;;;5.47;4.90;;;17.60;99.90;;;;;;5106016;28;20474;-38
2022/06/07 00:53:23;;;;;;;5.80;5.20;;;17.60;99.90;;;;;;5116912;28;20524;-41
2022/06/07 00:55:50;;;;;;;6.87;5.10;;;17.60;99.90;;;;;;5104426;28;20522;-39
2022/06/07 00:58:17;;;;;;;7.90;5.80;;;17.60;99.90;;;;;;5111969;28;20465;-37
2022/06/07 01:00:45;;;;;;;7.03;5.60;;;17.50;99.90;;;;;;5117520;28;20485;-36
2022/06/07 01:03:12;;;;;;;7.90;5.17;;;17.50;99.90;;;;;;5104765;28;20444;-39
2022/06/07 01:05:39;;;;;;;6.77;4.97;;;17.40;99.90;;;;;;5111630;28;20506;-37
2022/06/07 01:10:55;;;;;;;6.80;5.47;;;17.30;99.90;;;;;;5117146;28;20425;-41
2022/06/07 01:13:28;;;;;;;7.30;6.20;;;17.30;99.90;;;;;;5117223;28;20429;-37
2022/06/07 01:15:58;;;;;;;7.40;5.20;;;17.30;99.90;;;;;;5117265;28;20457;-39
2022/06/07 01:18:25;;;;;;;6.33;5.20;;;17.20;99.90;;;;;;5100222;28;20422;-39
2022/06/07 01:21:14;;;;;;;7.87;5.10;;;17.20;99.90;;;;;;5117051;28;20473;-39
2022/06/07 01:23:42;;;;;;;6.70;5.23;;;17.10;99.90;;;;;;5100556;28;20789;-38
2022/06/07 01:26:09;;;;;;;6.93;6.13;;;17.10;99.90;;;;;;5115318;28;20468;-37
2022/06/07 01:28:36;;;;;;;7.57;5.67;;;17.10;99.90;;;;;;5099820;28;20448;-39
2022/06/07 01:31:03;;;;;;;7.00;6.07;;;17.10;99.90;;;;;;5116094;28;20502;-37
2022/06/07 01:33:30;;;;;;;7.13;5.43;;;17.00;99.90;;;;;;5116265;28;20433;-39
2022/06/07 01:36:01;;;;;;;6.07;5.47;;;17.00;99.90;;;;;;5117130;28;20473;-41
2022/06/07 01:38:32;;;;;;;7.70;6.50;;;17.00;99.90;;;;;;5117167;28;20457;-41
2022/06/07 01:43:43;;;;;;;8.67;5.23;;;17.00;99.90;;;;;;5117232;28;20400;-38
2022/06/07 01:46:10;;;;;;;6.90;5.97;;;17.10;99.90;;;;;;5116485;28;20447;-39
2022/06/07 01:48:37;;;;;;;7.53;5.90;;;17.10;99.90;;;;;;5116881;28;20429;-45
2022/06/07 01:51:05;;;;;;;9.23;5.53;;;17.20;99.90;;;;;;5116826;28;20533;-37
2022/06/07 01:53:34;;;;;;;6.20;5.50;;;17.20;99.90;;;;;;5116916;28;20498;-38
2022/06/07 01:56:03;;;;;;;6.00;5.03;;;17.20;99.90;;;;;;5117261;28;20461;-37
2022/06/07 01:58:30;;;;;;;8.50;6.43;;;17.10;99.90;;;;;;5116887;28;20934;-38
2022/06/07 02:00:57;;;;;;;6.13;5.53;;;17.10;99.90;;;;;;5116927;28;20477;-37
2022/06/07 02:03:24;;;;;;;6.43;5.17;;;17.10;99.90;;;;;;5116340;28;20441;-38
2022/06/07 02:05:55;;;;;;;10.57;5.37;;;17.10;99.90;;;;;;5116622;28;20484;-38
2022/06/07 02:08:22;;;;;;;6.27;5.10;;;17.00;99.90;;;;;;5116258;28;20466;-40
2022/06/07 02:10:50;;;;;;;8.90;5.23;;;17.00;99.90;;;;;;5116373;28;20481;-38
2022/06/07 02:13:17;;;;;;;6.77;5.40;;;17.00;99.90;;;;;;5102677;28;20466;-37
2022/06/07 02:15:44;;;;;;;9.73;6.70;;;17.00;99.90;;;;;;5116768;28;20468;-37
2022/06/07 02:18:11;;;;;;;5.57;5.07;;;17.00;99.90;;;;;;5116088;28;20457;-38
2022/06/07 02:20:38;;;;;;;7.80;6.07;;;17.00;99.90;;;;;;5115465;28;20472;-37
2022/06/07 02:23:08;;;;;;;7.67;6.70;;;16.90;99.90;;;;;;5107301;28;20765;-37
2022/06/07 02:25:41;;;;;;;6.87;5.93;;;16.90;99.90;;;;;;5110586;28;20523;-37
2022/06/07 02:28:10;;;;;;;6.60;5.70;;;16.90;99.90;;;;;;5116215;28;20909;-44
2022/06/07 02:30:37;;;;;;;7.93;5.97;;;16.90;99.90;;;;;;5115806;28;20478;-40
2022/06/07 02:33:04;;;;;;;7.20;6.47;;;16.80;99.90;;;;;;5111669;28;20876;-38
2022/06/07 02:35:31;;;;;;;7.20;5.40;;;16.80;99.90;;;;;;5103772;28;20557;-38
2022/06/07 02:37:58;;;;;;;7.60;6.57;;;16.80;99.90;;;;;;5115522;28;20466;-40
2022/06/07 02:40:25;;;;;;;7.03;6.30;;;16.70;99.90;;;;;;5115901;28;20489;-40
2022/06/07 02:42:52;;;;;;;10.00;6.47;;;16.70;99.90;;;;;;5116142;28;20436;-43
2022/06/07 02:45:20;;;;;;;7.47;6.77;;;16.60;99.90;;;;;;5115918;28;20445;-38
2022/06/07 02:47:47;;;;;;;6.20;5.60;;;16.60;99.90;;;;;;5115514;28;20468;-36
2022/06/07 02:50:14;;;;;;;7.40;6.27;;;16.60;99.90;;;;;;5111996;28;20433;-39
2022/06/07 02:52:41;;;;;;;7.50;6.10;;;16.60;99.90;;;;;;5101070;28;20482;-38
2022/06/07 02:55:09;;;;;;;8.83;6.87;;;16.60;99.90;;;;;;5114509;28;20456;-37
2022/06/07 02:57:36;;;;;;;8.20;6.63;;;16.60;99.90;;;;;;5115109;28;20513;-38
2022/06/07 03:00:05;;;;;;;5.80;5.20;;;16.50;99.90;;;;;;5115827;28;20483;-41
2022/06/07 03:02:33;;;;;;;10.00;5.23;;;16.50;99.90;;;;;;5115283;28;20434;-40
2022/06/07 03:05:00;;;;;;;8.53;6.70;;;16.40;99.90;;;;;;5107094;28;20508;-40
2022/06/07 03:07:26;;;;;;;9.57;6.13;;;16.40;99.90;;;;;;5105861;28;20524;-37
2022/06/07 03:09:54;;;;;;;9.07;6.10;;;16.30;99.90;;;;;;5115470;28;20794;-35
2022/06/07 03:12:23;;;;;;;6.43;5.77;;;16.30;99.90;;;;;;5115848;28;20421;-39
2022/06/07 03:14:55;;;;;;;7.83;7.10;;;16.30;99.90;;;;;;5115257;28;20481;-38
2022/06/07 03:17:24;;;;;;;7.50;6.50;;;16.30;99.90;;;;;;5115417;28;20464;-39
2022/06/07 03:19:54;;;;;;;7.27;6.07;;;16.40;99.90;;;;;;5114863;28;20481;-40
2022/06/07 03:22:23;;;;;;;9.93;6.50;;;16.40;99.90;;;;;;5115196;28;20426;-40
2022/06/07 03:24:50;;;;;;;9.00;6.80;;;16.40;99.90;;;;;;5115339;28;20468;-39
2022/06/07 03:27:19;;;;;;;6.93;6.23;;;16.40;99.90;;;;;;5115333;28;20437;-37
2022/06/07 03:29:46;;;;;;;7.90;7.10;;;16.40;99.90;;;;;;5115430;28;20517;-38
2022/06/07 03:32:13;;;;;;;8.23;6.57;;;16.40;99.90;;;;;;5115077;28;20468;-38
2022/06/07 03:34:40;;;;;;;7.53;6.20;;;16.50;99.90;;;;;;5119172;28;20456;-39
2022/06/07 03:37:08;;;;;;;7.10;6.13;;;16.50;99.90;;;;;;5119084;28;20496;-38
2022/06/07 03:39:35;;;;;;;7.60;6.50;;;16.60;99.90;;;;;;5118958;28;20525;-38
2022/06/07 03:42:02;;;;;;;10.63;6.13;;;16.60;99.90;;;;;;5118250;28;20513;-38
2022/06/07 03:44:29;;;;;;;8.03;6.60;;;16.60;99.90;;;;;;5103243;28;20422;-39
2022/06/07 03:46:56;;;;;;;7.77;6.20;;;16.60;99.90;;;;;;5118701;28;20446;-41
2022/06/07 03:49:23;;;;;;;9.60;5.70;;;16.50;99.90;;;;;;5119121;28;20446;-40
2022/06/07 03:51:50;;;;;;;7.23;6.47;;;16.60;99.90;;;;;;5118265;28;20457;-38
2022/06/07 03:54:18;;;;;;;8.30;6.60;;;16.60;99.90;;;;;;5106199;28;20457;-41
2022/06/07 03:56:45;;;;;;;6.43;5.80;;;16.60;99.90;;;;;;5113857;28;20429;-39
2022/06/07 03:59:12;;;;;;;8.30;6.00;;;16.60;99.90;;;;;;5118812;28;20489;-39
2022/06/07 04:01:39;;;;;;;6.60;5.93;;;16.60;99.90;;;;;;5119134;28;20549;-40
2022/06/07 04:04:09;;;;;;;8.30;4.57;;;16.70;99.90;;;;;;5118914;28;20429;-38
2022/06/07 04:06:39;;;;;;;6.90;5.33;;;16.70;99.90;;;;;;5118796;28;20457;-39
2022/06/07 04:09:08;;;;;;;6.47;4.60;;;16.80;99.90;;;;;;5118683;28;20469;-36
2022/06/07 04:11:36;;;;;;;5.20;4.27;;;16.90;99.90;;;;;;5118705;28;20442;-39
2022/06/07 04:14:10;;;;;;;7.07;4.30;;;16.90;99.90;;;;;;5118243;28;20551;-39
2022/06/07 04:16:37;;;;;;;5.83;5.27;;;16.90;99.90;;;;;;5118696;28;20469;-39
2022/06/07 04:19:04;;;;;;;5.23;3.80;;;17.00;99.90;;;;;;5118774;28;20470;-39
2022/06/07 04:21:31;;;;;;;9.43;4.33;;;17.00;99.90;;;;;;5118480;28;20492;-39
2022/06/07 04:23:58;;;;;;;3.93;3.53;;;16.90;99.90;;;;;;5118583;28;20453;-43
2022/06/07 04:26:26;;;;;;;4.13;3.40;;;16.90;99.90;;;;;;5118044;28;20508;-40
2022/06/07 04:28:57;;;;;;;3.70;3.07;;;17.00;99.90;;;;;;5117742;28;20430;-38
2022/06/07 04:31:26;;;;;;;4.03;3.57;;;17.00;99.90;;;;;;5118420;28;20441;-39
2022/06/07 04:34:04;;;;;;;4.90;3.27;;;17.00;99.90;;;;;;5118147;28;20500;-44
2022/06/07 04:36:31;;;;;;;3.33;3.03;;;16.90;99.90;;;;;;5117869;28;20413;-40
2022/06/07 04:39:03;;;;;;;3.47;3.17;;;17.00;99.90;;;;;;5117849;28;20533;-38
2022/06/07 04:41:33;;;;;;;4.47;3.70;;;17.00;99.90;;;;;;5118298;28;20520;-38
2022/06/07 04:44:01;;;;;;;3.93;3.10;;;17.00;99.90;;;;;;5117757;28;20454;-39
2022/06/07 04:46:28;;;;;;;3.30;3.00;;;17.10;99.90;;;;;;5118124;28;20449;-39
2022/06/07 04:48:56;;;;;;;3.43;2.50;;;17.10;99.90;;;;;;5118256;28;20460;-40
2022/06/07 04:51:27;;;;;;;4.50;3.13;;;17.20;99.90;;;;;;5117826;28;20417;-41
2022/06/07 04:53:55;;;;;;;3.47;2.90;;;17.20;99.90;;;;;;5103580;28;20433;-40
2022/06/07 04:56:24;;;;;;;3.93;3.00;;;17.20;99.90;;;;;;5111053;28;20773;-38
2022/06/07 04:58:52;;;;;;;3.03;2.80;;;17.30;99.90;;;;;;5101647;28;20524;-39
2022/06/07 05:01:22;;;;;;;4.43;2.60;;;17.30;99.90;;;;;;5108598;28;20484;-38
2022/06/07 05:03:50;;;;;;;6.43;4.00;;;17.30;99.90;;;;;;5109567;28;20450;-40
2022/06/07 05:06:19;;;;;;;3.23;2.93;;;17.40;99.90;;;;;;5102964;28;20496;-40
2022/06/07 05:08:46;;;;;;;3.20;2.90;;;17.50;99.90;;;;;;5100478;28;20452;-39
2022/06/07 05:11:13;;;;;;;3.33;2.60;;;17.60;99.90;;;;;;5107470;28;20473;-37
2022/06/07 05:13:40;;;;;;;4.60;2.30;;;17.70;99.90;;;;;;5111519;28;20445;-38
2022/06/07 05:16:08;;;;;;;2.43;2.23;;;17.70;99.90;;;;;;5102756;28;20477;-38
2022/06/07 05:18:36;;;;;;;3.10;2.30;;;17.80;99.90;;;;;;5102187;28;20465;-40
2022/06/07 05:21:06;;;;;;;7.30;2.17;;;17.80;99.90;;;;;;5105271;28;20553;-39
2022/06/07 05:23:33;;;;;;;2.73;2.47;;;17.80;99.90;;;;;;5108813;28;20475;-39
2022/06/07 05:26:05;;;;;;;4.50;2.37;;;17.90;99.90;;;;;;5117110;28;20498;-49
2022/06/07 05:28:32;;;;;;;4.27;2.80;;;17.90;99.90;;;;;;5117546;28;20433;-44
2022/06/07 05:30:59;;;;;;;2.63;2.43;;;18.00;99.90;;;;;;5114610;28;20484;-38
2022/06/07 05:33:26;;;;;;;3.10;2.80;;;18.00;99.90;;;;;;5117696;28;20462;-44
2022/06/07 05:35:55;;;;;;;2.93;2.47;;;18.00;99.90;;;;;;5117196;28;20445;-39
2022/06/07 05:38:22;;;;;;;2.33;2.13;;;18.00;99.90;;;;;;5117895;28;20429;-40
2022/06/07 05:40:49;;;;;;;7.70;3.07;;;18.00;99.90;;;;;;5117655;28;20477;-39
2022/06/07 05:43:16;;;;;;;6.17;2.33;;;18.10;99.90;;;;;;5111895;28;20460;-39
2022/06/07 05:45:47;;;;;;;3.33;2.43;;;18.20;99.90;;;;;;5108068;28;20441;-38
2022/06/07 05:48:14;;;;;;;2.93;2.60;;;18.30;99.90;;;;;;5100958;28;20431;-39
2022/06/07 05:50:43;;;;;;;5.63;2.87;;;18.30;99.90;;;;;;5103587;28;20437;-39
2022/06/07 05:53:12;;;;;;;2.53;2.30;;;18.30;99.90;;;;;;5116956;28;20569;-40
2022/06/07 05:55:39;;;;;;;3.83;2.20;;;18.40;99.90;;;;;;5109615;28;20469;-42
2022/06/07 05:58:08;;;;;;;3.40;2.20;;;18.40;99.90;;;;;;5111546;28;20501;-41
2022/06/07 06:00:35;;;;;;;3.40;2.13;;;18.70;99.90;;;;;;5113878;28;20489;-38
2022/06/07 06:03:02;;;;;;;4.50;2.30;;;18.80;99.90;;;;;;5104727;28;20441;-42
2022/06/07 06:05:29;;;;;;;5.80;2.50;;;19.00;99.90;;;;;;5106574;28;20524;-37
2022/06/07 06:10:42;;;;;;;2.10;1.67;;;19.40;99.90;;;;;;5104289;28;20451;-40
2022/06/07 06:13:09;;;;;;;2.70;2.30;;;19.50;99.90;;;;;;5109145;28;20473;-38
2022/06/07 06:15:36;;;;;;;3.23;2.10;;;19.60;99.90;;;;;;5115702;28;20461;-38
2022/06/07 06:18:03;;;;;;;2.13;1.80;;;19.70;99.90;;;;;;5116262;28;20480;-39
2022/06/07 06:20:30;;;;;;;3.30;3.10;;;19.70;99.90;;;;;;5116817;28;20457;-39
2022/06/07 06:22:57;;;;;;;4.40;2.10;;;19.80;99.90;;;;;;5107547;28;20472;-41
2022/06/07 06:25:24;;;;;;;3.20;1.83;;;19.80;99.90;;;;;;5104810;28;20490;-38
2022/06/07 06:27:52;;;;;;;7.40;2.57;;;19.90;99.90;;;;;;5115309;28;20517;-38
2022/06/07 06:30:20;;;;;;;2.97;2.07;;;20.00;99.90;;;;;;5102705;28;20429;-38
2022/06/07 06:32:47;;;;;;;2.30;2.10;;;20.20;99.90;;;;;;5111324;28;20462;-41
2022/06/07 06:35:14;;;;;;;2.23;2.03;;;20.40;99.90;;;;;;5115502;28;20479;-39
2022/06/07 06:37:41;;;;;;;1.73;1.57;;;20.50;99.90;;;;;;5116118;28;20497;-38
2022/06/07 06:40:09;;;;;;;2.87;2.00;;;20.70;99.90;;;;;;5115441;28;20446;-37
2022/06/07 06:42:39;;;;;;;3.90;1.50;;;20.80;99.90;;;;;;5115638;28;20513;-37
2022/06/07 06:45:08;;;;;;;2.20;1.63;;;20.80;99.90;;;;;;5115901;28;20433;-39
2022/06/07 06:47:39;;;;;;;2.73;2.10;;;20.90;99.90;;;;;;5115614;28;20511;-40
2022/06/07 06:50:06;;;;;;;3.40;2.30;;;21.00;99.90;;;;;;5115577;28;20436;-41
2022/06/07 06:52:33;;;;;;;3.10;1.80;;;21.10;99.90;;;;;;5115850;28;20493;-41
2022/06/07 06:55:03;;;;;;;4.27;2.20;;;21.20;99.90;;;;;;5116058;28;20455;-39
2022/06/07 06:57:29;;;;;;;2.77;1.90;;;21.20;99.90;;;;;;5115779;28;20453;-39
2022/06/07 06:59:56;;;;;;;3.07;1.73;;;21.30;99.90;;;;;;5115266;28;20486;-40
2022/06/07 07:02:24;;;;;;;2.73;1.80;;;21.50;99.90;;;;;;5115409;28;20784;-41
2022/06/07 07:04:51;;;;;;;3.20;1.90;;;21.70;99.90;;;;;;5111246;28;20487;-40
2022/06/07 07:07:18;;;;;;;1.87;1.67;;;21.90;99.90;;;;;;5113883;28;20444;-38
2022/06/07 07:09:46;;;;;;;3.37;2.10;;;22.00;99.90;;;;;;5115482;28;20449;-38
2022/06/07 07:12:14;;;;;;;2.30;1.67;;;22.10;99.90;;;;;;5115396;28;20434;-40
2022/06/07 07:14:41;;;;;;;2.20;1.80;;;22.30;99.90;;;;;;5114761;28;20449;-40
2022/06/07 07:17:08;;;;;;;2.37;1.90;;;22.50;99.90;;;;;;5114599;28;20507;-37
2022/06/07 07:19:36;;;;;;;2.17;1.90;;;23.30;99.90;;;;;;5106765;28;20437;-39
2022/06/07 07:22:04;;;;;;;3.27;2.10;;;24.20;99.90;;;;;;5104561;28;20465;-35
2022/06/07 07:24:32;;;;;;;1.83;1.67;;;24.50;99.30;;;;;;5113524;28;20505;-41
2022/06/07 07:27:00;;;;;;;2.27;2.07;;;24.30;97.80;;;;;;5115151;28;20445;-38
2022/06/07 07:29:27;;;;;;;4.80;2.20;;;24.20;98.60;;;;;;5115748;28;20441;-38
2022/06/07 07:31:54;;;;;;;5.83;2.27;;;24.00;99.60;;;;;;5114402;28;20536;-38
2022/06/07 07:34:21;;;;;;;2.60;2.10;;;24.20;99.90;;;;;;5115050;28;20461;-39
2022/06/07 07:36:57;;;;;;;2.13;1.93;;;24.30;96.40;;;;;;5115150;28;20429;-37
2022/06/07 07:39:26;;;;;;;2.80;1.77;;;24.60;95.50;;;;;;5114851;28;20469;-36
2022/06/07 07:41:55;;;;;;;2.03;1.57;;;25.30;93.50;;;;;;5097263;28;20481;-37
2022/06/07 07:44:24;;;;;;;1.70;1.60;;;25.50;92.00;;;;;;5113954;28;20430;-36
2022/06/07 07:46:53;;;;;;;6.00;2.00;;;25.80;92.20;;;;;;5115049;28;20485;-37
2022/06/07 07:49:21;;;;;;;2.67;1.90;;;26.10;90.30;;;;;;5114168;28;20488;-37
2022/06/07 07:51:52;;;;;;;2.37;1.80;;;26.60;84.80;;;;;;5115551;28;20483;-35
2022/06/07 07:54:22;;;;;;;3.47;2.50;;;27.20;82.10;;;;;;5114736;28;20481;-38
2022/06/07 07:56:49;;;;;;;2.17;1.97;;;27.40;78.90;;;;;;5113763;28;20438;-37
2022/06/07 07:59:20;;;;;;;6.27;2.27;;;27.40;76.80;;;;;;5113509;28;20517;-37
2022/06/07 08:01:49;;;;;;;3.67;2.10;;;27.30;75.90;;;;;;5097907;28;20474;-38
2022/06/07 08:04:16;;;;;;;3.23;1.90;;;27.20;74.50;;;;;;5112762;28;20476;-37
2022/06/07 08:06:43;;;;;;;4.03;3.63;;;27.20;73.50;;;;;;5113877;28;20456;-37
2022/06/07 08:09:12;;;;;;;3.03;2.73;;;27.40;73.60;;;;;;5100302;28;20516;-36
2022/06/07 08:11:41;;;;;;;1.70;1.60;;;27.60;71.20;;;;;;5113105;28;20533;-38
2022/06/07 08:14:13;;;;;;;3.07;1.73;;;27.30;69.10;;;;;;5113967;28;20489;-37
2022/06/07 08:16:40;;;;;;;3.60;1.70;;;26.80;69.10;;;;;;5108282;28;20442;-38
2022/06/07 08:19:08;;;;;;;3.40;2.10;;;26.50;73.10;;;;;;5103404;28;20473;-38
2022/06/07 08:21:35;;;;;;;4.40;1.67;;;26.30;72.90;;;;;;5117066;28;20477;-37
2022/06/07 08:24:02;;;;;;;2.47;1.50;;;26.30;73.40;;;;;;5117668;28;20464;-36
2022/06/07 08:26:31;;;;;;;1.93;1.37;;;26.20;75.30;;;;;;5117507;28;20513;-36
2022/06/07 08:28:59;;;;;;;1.70;1.50;;;26.10;74.50;;;;;;5118102;28;20465;-37
2022/06/07 08:31:29;;;;;;;2.33;2.03;;;26.00;75.70;;;;;;5107337;28;20440;-39
2022/06/07 08:39:26;;;;;;;4.77;2.73;;;25.40;70.80;;;;;;5118142;28;20452;-37
2022/06/07 08:41:57;;;;;;;1.67;1.57;;;25.30;72.30;;;;;;5108189;28;20484;-37
2022/06/07 08:44:30;;;;;;;1.20;1.00;;;25.30;71.40;;;;;;5111139;28;20466;-38
2022/06/07 08:47:00;;;;;;;2.77;2.50;;;25.30;73.00;;;;;;5102055;28;20508;-36
2022/06/07 08:49:28;;;;;;;2.00;1.60;;;25.40;73.50;;;;;;5115974;28;20500;-37
2022/06/07 08:52:00;;;;;;;2.30;1.50;;;25.60;75.30;;;;;;5111666;28;20458;-37
2022/06/07 08:54:31;;;;;;;2.40;1.60;;;26.00;71.70;;;;;;5106894;28;20560;-36
2022/06/07 08:57:04;;;;;;;4.40;2.20;;;27.10;70.70;;;;;;5116968;28;20453;-43
2022/06/07 08:59:31;;;;;;;9.20;1.80;;;28.80;67.10;;;;;;5115917;28;20456;-35
2022/06/07 09:02:06;;;;;;;1.73;1.63;;;30.10;63.10;;;;;;5115367;28;20564;-38
2022/06/07 09:04:36;;;;;;;2.70;1.70;;;30.70;58.90;;;;;;5116233;28;20532;-37
2022/06/07 09:07:05;;;;;;;4.13;3.50;;;30.70;57.10;;;;;;5115999;28;20452;-40
2022/06/07 09:12:24;;;;;;;1.70;1.57;;;31.10;56.90;;;;;;5116197;28;20436;-38
2022/06/07 09:14:53;;;;;;;5.10;2.60;;;31.50;56.40;;;;;;5116194;28;20442;-40
2022/06/07 09:17:29;;;;;;;2.33;2.10;;;31.90;55.60;;;;;;5116073;28;20525;-36
2022/06/07 09:19:56;;;;;;;1.50;1.30;;;32.10;54.50;;;;;;5116206;28;21012;-37
2022/06/07 09:22:26;;;;;;;3.20;2.10;;;32.60;54.00;;;;;;5115526;28;20535;-38
2022/06/07 09:24:58;;;;;;;3.30;2.37;;;32.40;51.50;;;;;;5116228;28;20537;-38
2022/06/07 09:27:30;;;;;;;2.50;1.93;;;31.50;52.50;;;;;;5115372;28;20425;-39
2022/06/07 09:29:59;;;;;;;4.13;1.83;;;30.40;54.40;;;;;;5114214;28;20473;-35
2022/06/07 09:32:29;;;;;;;3.60;1.60;;;29.20;55.50;;;;;;5115714;28;20464;-36
2022/06/07 09:35:02;;;;;;;6.37;2.10;;;28.00;58.10;;;;;;5115590;28;20469;-37
2022/06/07 09:37:39;;;;;;;1.80;1.53;;;27.20;59.40;;;;;;5106758;28;20755;-39
2022/06/07 09:40:24;;;;;;;6.83;1.73;;;26.70;60.90;;;;;;5110742;28;20504;-38
2022/06/07 09:42:58;;;;;;;2.70;1.77;;;26.60;64.50;;;;;;5115903;28;20469;-40
2022/06/07 09:45:28;;;;;;;2.07;1.87;;;26.70;65.90;;;;;;5116765;28;20462;-38
2022/06/07 09:47:55;;;;;;;2.10;1.90;;;26.70;63.10;;;;;;5116965;28;20440;-38
2022/06/07 09:50:25;;;;;;;3.57;2.00;;;26.90;65.10;;;;;;5115492;28;20465;-37
2022/06/07 09:52:55;;;;;;;2.50;2.30;;;27.20;63.40;;;;;;5114946;28;20455;-37
2022/06/07 09:55:30;;;;;;;2.57;2.37;;;27.30;63.10;;;;;;5102969;28;20552;-39
2022/06/07 09:58:12;;;;;;;2.93;2.60;;;26.90;63.30;;;;;;5111372;28;20485;-38
2022/06/07 10:00:47;;;;;;;2.63;2.03;;;26.40;63.90;;;;;;5116215;28;20464;-38
2022/06/07 10:03:28;;;;;;;2.60;1.80;;;25.90;64.80;;;;;;5114925;28;20489;-38
2022/06/07 10:06:10;;;;;;;17.07;2.40;;;25.50;67.00;;;;;;5115286;28;20490;-37
2022/06/07 10:08:56;;;;;;;3.33;1.60;;;25.30;69.50;;;;;;5109892;28;20441;-38
2022/06/07 10:11:28;;;;;;;1.60;1.50;;;25.50;69.10;;;;;;5107287;28;20460;-35
2022/06/07 10:14:06;;;;;;;2.57;1.90;;;25.50;66.70;;;;;;5115857;28;20433;-38
2022/06/07 10:16:42;;;;;;;1.70;1.50;;;25.60;68.40;;;;;;5101005;28;20447;-38
2022/06/07 10:19:22;;;;;;;2.00;1.53;;;25.50;68.40;;;;;;5112814;28;20429;-37
2022/06/07 10:22:17;;;;;;;2.33;1.80;;;25.60;68.40;;;;;;5116166;28;20525;-38
2022/06/07 10:24:51;;;;;;;1.80;1.60;;;25.60;66.50;;;;;;5115302;28;20493;-38
2022/06/07 10:27:22;;;;;;;3.90;1.53;;;25.80;64.80;;;;;;5099482;28;20454;-37
2022/06/07 10:30:10;;;;;;;2.27;1.73;;;26.20;66.50;;;;;;5113635;28;20473;-38
2022/06/07 10:32:49;;;;;;;2.50;1.90;;;27.10;63.10;;;;;;5115676;28;20449;-39
2022/06/07 10:35:24;;;;;;;4.50;2.80;;;27.80;60.50;;;;;;5114992;28;20928;-38
2022/06/07 10:38:03;;;;;;;1.83;1.70;;;28.20;58.70;;;;;;5114903;28;20456;-38
2022/06/07 10:40:41;;;;;;;3.57;1.87;;;28.10;59.30;;;;;;5114756;28;20465;-38
2022/06/07 10:43:17;;;;;;;2.10;1.70;;;27.70;59.10;;;;;;5114544;28;20711;-37
2022/06/07 10:45:47;;;;;;;1.80;1.70;;;27.30;60.60;;;;;;5114444;28;20520;-38
2022/06/07 10:48:20;;;;;;;2.90;1.53;;;27.10;61.70;;;;;;5115138;28;20962;-38
2022/06/07 10:50:52;;;;;;;2.63;1.97;;;27.00;60.50;;;;;;5112683;28;20513;-38
2022/06/07 10:53:22;;;;;;;4.87;4.30;;;26.70;60.90;;;;;;5113958;28;20426;-37
2022/06/07 10:55:55;;;;;;;6.73;2.17;;;26.50;62.00;;;;;;5113919;28;20465;-39
2022/06/07 10:58:33;;;;;;;5.17;3.17;;;26.40;62.80;;;;;;5114301;28;20493;-38
2022/06/07 11:01:15;;;;;;;3.10;2.80;;;26.40;63.80;;;;;;5113119;28;20548;-39
2022/06/07 11:04:00;;;;;;;3.50;1.97;;;26.20;64.80;;;;;;5108556;28;20525;-38
2022/06/07 11:09:23;;;;;;;3.30;1.90;;;25.70;65.20;;;;;;5113148;28;20501;-38
2022/06/07 11:11:54;;;;;;;4.17;2.20;;;25.40;65.50;;;;;;5112156;28;20468;-38
2022/06/07 11:14:53;;;;;;;2.73;2.10;;;25.20;66.80;;;;;;5112814;28;20457;-38
2022/06/07 11:17:29;;;;;;;2.17;1.73;;;25.00;68.70;;;;;;5112692;28;20444;-39
2022/06/07 11:20:01;;;;;;;2.50;1.87;;;24.80;69.00;;;;;;5098920;28;20568;-38
2022/06/07 11:22:34;;;;;;;3.30;2.60;;;24.60;66.60;;;;;;5112444;28;20495;-39
2022/06/07 11:25:19;;;;;;;2.40;2.10;;;24.50;66.80;;;;;;5113414;28;20449;-38
2022/06/07 11:27:53;;;;;;;2.73;2.00;;;24.40;67.80;;;;;;5113287;28;20442;-38
2022/06/07 11:30:42;;;;;;;2.20;1.77;;;24.50;68.00;;;;;;5113858;28;20456;-39
2022/06/07 11:33:38;;;;;;;2.20;1.70;;;24.70;68.30;;;;;;5113126;28;20441;-37
2022/06/07 11:36:08;;;;;;;3.83;1.93;;;24.80;68.50;;;;;;5113719;28;20445;-44
2022/06/07 11:38:56;;;;;;;2.13;1.80;;;25.00;68.60;;;;;;5113934;28;20464;-40
2022/06/07 11:41:42;;;;;;;2.00;1.80;;;25.20;68.70;;;;;;5114715;28;20521;-38
2022/06/07 11:44:39;;;;;;;5.70;2.30;;;25.40;68.20;;;;;;5112872;28;20453;-37
2022/06/07 11:47:33;;;;;;;2.90;1.67;;;25.40;67.70;;;;;;5094038;28;20516;-37
2022/06/07 11:50:28;;;;;;;2.47;1.93;;;25.20;65.70;;;;;;5104849;28;20460;-38
2022/06/07 11:53:00;;;;;;;2.23;2.03;;;25.20;68.30;;;;;;5114307;28;20434;-38
2022/06/07 11:55:38;;;;;;;3.10;2.77;;;25.20;68.10;;;;;;5117872;28;20488;-38
2022/06/07 11:58:07;;;;;;;3.73;3.40;;;25.20;68.10;;;;;;5102494;28;20430;-39
2022/06/07 12:00:52;;;;;;;3.60;1.83;;;25.10;68.30;;;;;;5105070;28;20465;-40
2022/06/07 12:03:33;;;;;;;2.57;2.03;;;24.80;68.30;;;;;;5114284;28;20461;-39
2022/06/07 12:06:18;;;;;;;3.87;2.00;;;24.70;69.40;;;;;;5116543;28;20538;-40
2022/06/07 12:09:00;;;;;;;7.20;2.27;;;24.50;69.40;;;;;;5117395;28;20535;-36
2022/06/07 12:11:29;;;;;;;1.90;1.60;;;24.50;70.20;;;;;;5104465;28;20479;-37
2022/06/07 12:14:17;;;;;;;4.23;2.00;;;24.50;69.00;;;;;;5112498;28;20552;-40
2022/06/07 12:16:51;;;;;;;3.97;2.30;;;24.70;68.90;;;;;;5110394;28;20473;-39
2022/06/07 12:19:20;;;;;;;1.73;1.63;;;25.00;68.40;;;;;;5116735;28;20493;-37
2022/06/07 12:21:55;;;;;;;3.20;1.93;;;25.20;67.10;;;;;;5117317;28;20513;-39
2022/06/07 12:24:23;;;;;;;2.90;2.13;;;25.20;66.80;;;;;;5118124;28;20409;-38
2022/06/07 12:26:50;;;;;;;3.33;2.70;;;25.30;66.00;;;;;;5117618;28;20520;-46
2022/06/07 12:29:23;;;;;;;2.87;2.30;;;25.30;66.70;;;;;;5117768;28;20448;-43
2022/06/07 12:31:52;;;;;;;2.33;2.13;;;25.30;67.40;;;;;;5117966;28;20476;-38
2022/06/07 12:34:22;;;;;;;3.10;1.93;;;25.20;68.00;;;;;;5117484;28;20765;-37
2022/06/07 12:36:55;;;;;;;1.90;1.70;;;25.00;67.50;;;;;;5099709;28;20569;-37
2022/06/07 12:39:22;;;;;;;3.20;1.93;;;24.90;67.90;;;;;;5117435;28;20437;-39
2022/06/07 12:41:53;;;;;;;1.70;1.50;;;24.90;69.30;;;;;;5118173;28;20468;-37
2022/06/07 12:44:31;;;;;;;2.70;1.97;;;24.80;66.80;;;;;;5117968;28;20469;-38
2022/06/07 12:47:00;;;;;;;2.10;1.67;;;24.80;66.30;;;;;;5118353;28;20508;-35
2022/06/07 12:49:30;;;;;;;1.47;1.37;;;24.90;65.30;;;;;;5118546;28;20436;-38
2022/06/07 12:52:01;;;;;;;1.70;1.60;;;25.00;64.20;;;;;;5117806;28;20472;-36
2022/06/07 12:54:33;;;;;;;2.40;1.23;;;25.00;64.40;;;;;;5117655;28;20421;-37
2022/06/07 12:57:04;;;;;;;2.00;1.77;;;25.00;64.20;;;;;;5118084;28;20507;-37
2022/06/07 12:59:36;;;;;;;2.70;1.80;;;24.90;66.10;;;;;;5117823;28;20414;-36
2022/06/07 13:02:14;;;;;;;2.30;1.80;;;24.80;64.70;;;;;;5117437;28;20461;-37
2022/06/07 13:04:47;;;;;;;2.90;2.10;;;24.70;65.00;;;;;;5117087;28;20445;-36
2022/06/07 13:07:20;;;;;;;4.50;1.70;;;24.70;66.10;;;;;;5117145;28;20465;-39
2022/06/07 13:09:48;;;;;;;2.33;1.80;;;24.80;66.50;;;;;;5116727;28;20434;-38
2022/06/07 13:12:21;;;;;;;1.70;1.60;;;24.90;66.10;;;;;;5116645;28;20461;-38
2022/06/07 13:14:52;;;;;;;4.50;1.90;;;24.90;66.30;;;;;;5117549;28;20458;-36
2022/06/07 13:17:32;;;;;;;1.70;1.60;;;25.00;66.70;;;;;;5117057;28;20472;-37
2022/06/07 13:20:00;;;;;;;3.70;1.53;;;25.20;65.20;;;;;;5116187;28;20422;-37
2022/06/07 13:22:32;;;;;;;1.83;1.60;;;25.30;64.70;;;;;;5117042;28;20457;-37